sensor_id;sensor_type;location;lat;lon;timestamp;temperature;humidity
23744;DHT22;12052;53.478;10.182;2023-07-28T00:01:51;16.00;99.90
23744;DHT22;12052;53.478;10.182;2023-07-28T00:04:17;15.90;99.90
23744;DHT22;12052;53.478;10.182;2023-07-28T00:06:42;16.00;99.90
23744;DHT22;12052;53.478;10.182;2023-07-28T00:09:08;16.00;99.90
23744;DHT22;12052;53.478;10.182;2023-07-28T00:11:34;16.00;99.90
23744;DHT22;12052;53.478;10.182;2023-07-28T00:13:59;16.00;99.90
23744;DHT22;12052;53.478;10.182;2023-07-28T00:16:25;15.90;99.90
23744;DHT22;12052;53.478;10.182;2023-07-28T00:18:50;16.00;99.90
23744;DHT22;12052;53.478;10.182;2023-07-28T00:21:16;16.00;99.90
23744;DHT22;12052;53.478;10.182;2023-07-28T00:23:41;16.00;99.90
23744;DHT22;12052;53.478;10.182;2023-07-28T00:26:07;16.00;99.90
23744;DHT22;12052;53.478;10.182;2023-07-28T00:28:33;16.00;99.90
23744;DHT22;12052;53.478;10.182;2023-07-28T00:30:58;16.00;99.90
23744;DHT22;12052;53.478;10.182;2023-07-28T00:33:24;16.00;99.90
23744;DHT22;12052;53.478;10.182;2023-07-28T00:35:50;16.10;99.90
23744;DHT22;12052;53.478;10.182;2023-07-28T00:38:16;16.10;99.90
23744;DHT22;12052;53.478;10.182;2023-07-28T00:40:41;16.10;99.90
23744;DHT22;12052;53.478;10.182;2023-07-28T00:43:07;16.10;99.90
23744;DHT22;12052;53.478;10.182;2023-07-28T00:45:33;16.10;99.90
23744;DHT22;12052;53.478;10.182;2023-07-28T00:47:59;16.10;99.90
23744;DHT22;12052;53.478;10.182;2023-07-28T00:50:25;16.10;99.90
23744;DHT22;12052;53.478;10.182;2023-07-28T00:52:51;16.10;99.90
23744;DHT22;12052;53.478;10.182;2023-07-28T00:55:17;16.10;99.90
23744;DHT22;12052;53.478;10.182;2023-07-28T00:57:43;16.10;99.90
23744;DHT22;12052;53.478;10.182;2023-07-28T01:00:09;16.10;99.90
23744;DHT22;12052;53.478;10.182;2023-07-28T01:02:36;16.10;99.90
23744;DHT22;12052;53.478;10.182;2023-07-28T01:05:02;16.10;99.90
23744;DHT22;12052;53.478;10.182;2023-07-28T01:08:06;16.10;99.90
23744;DHT22;12052;53.478;10.182;2023-07-28T01:10:34;16.10;99.90
23744;DHT22;12052;53.478;10.182;2023-07-28T01:13:00;16.10;99.90
23744;DHT22;12052;53.478;10.182;2023-07-28T01:15:26;16.10;99.90
23744;DHT22;12052;53.478;10.182;2023-07-28T01:17:52;16.10;99.90
23744;DHT22;12052;53.478;10.182;2023-07-28T01:20:18;16.10;99.90
23744;DHT22;12052;53.478;10.182;2023-07-28T01:28:20;16.10;99.90
23744;DHT22;12052;53.478;10.182;2023-07-28T01:30:46;16.10;99.90
23744;DHT22;12052;53.478;10.182;2023-07-28T01:33:12;16.10;99.90
23744;DHT22;12052;53.478;10.182;2023-07-28T01:35:38;16.10;99.90
23744;DHT22;12052;53.478;10.182;2023-07-28T01:38:04;16.00;99.90
23744;DHT22;12052;53.478;10.182;2023-07-28T01:40:30;16.10;99.90
23744;DHT22;12052;53.478;10.182;2023-07-28T01:42:56;16.10;99.90
23744;DHT22;12052;53.478;10.182;2023-07-28T01:45:21;16.10;99.90
23744;DHT22;12052;53.478;10.182;2023-07-28T01:47:47;16.10;99.90
23744;DHT22;12052;53.478;10.182;2023-07-28T01:50:12;16.00;99.90
23744;DHT22;12052;53.478;10.182;2023-07-28T01:52:38;16.10;99.90
23744;DHT22;12052;53.478;10.182;2023-07-28T01:55:04;16.10;99.90
23744;DHT22;12052;53.478;10.182;2023-07-28T01:57:33;16.10;99.90
23744;DHT22;12052;53.478;10.182;2023-07-28T01:59:59;16.10;99.90
23744;DHT22;12052;53.478;10.182;2023-07-28T02:02:25;16.00;99.90
23744;DHT22;12052;53.478;10.182;2023-07-28T02:04:50;16.10;99.90
23744;DHT22;12052;53.478;10.182;2023-07-28T02:07:16;16.10;99.90
23744;DHT22;12052;53.478;10.182;2023-07-28T02:09:42;16.10;99.90
23744;DHT22;12052;53.478;10.182;2023-07-28T02:12:07;16.10;99.90
23744;DHT22;12052;53.478;10.182;2023-07-28T02:14:33;16.10;99.90
23744;DHT22;12052;53.478;10.182;2023-07-28T02:16:59;16.10;99.90
23744;DHT22;12052;53.478;10.182;2023-07-28T02:19:24;16.10;99.90
23744;DHT22;12052;53.478;10.182;2023-07-28T02:21:50;16.00;99.90
23744;DHT22;12052;53.478;10.182;2023-07-28T02:24:15;16.10;99.90
23744;DHT22;12052;53.478;10.182;2023-07-28T02:26:42;16.10;99.90
23744;DHT22;12052;53.478;10.182;2023-07-28T02:29:08;16.10;99.90
23744;DHT22;12052;53.478;10.182;2023-07-28T02:31:34;16.10;99.90
23744;DHT22;12052;53.478;10.182;2023-07-28T02:33:59;16.10;99.90
23744;DHT22;12052;53.478;10.182;2023-07-28T02:36:25;16.10;99.90
23744;DHT22;12052;53.478;10.182;2023-07-28T02:38:51;16.10;99.90
23744;DHT22;12052;53.478;10.182;2023-07-28T02:41:16;16.10;99.90
23744;DHT22;12052;53.478;10.182;2023-07-28T02:43:42;16.10;99.90
23744;DHT22;12052;53.478;10.182;2023-07-28T02:46:07;16.10;99.90
23744;DHT22;12052;53.478;10.182;2023-07-28T02:48:33;16.10;99.90
23744;DHT22;12052;53.478;10.182;2023-07-28T02:50:59;16.10;99.90
23744;DHT22;12052;53.478;10.182;2023-07-28T02:53:24;16.10;99.90
23744;DHT22;12052;53.478;10.182;2023-07-28T02:55:50;16.10;99.90
23744;DHT22;12052;53.478;10.182;2023-07-28T02:58:15;16.10;99.90
23744;DHT22;12052;53.478;10.182;2023-07-28T03:00:43;16.10;99.90
23744;DHT22;12052;53.478;10.182;2023-07-28T03:03:10;16.10;99.90
23744;DHT22;12052;53.478;10.182;2023-07-28T03:05:36;16.10;99.90
23744;DHT22;12052;53.478;10.182;2023-07-28T03:08:03;16.10;99.90
23744;DHT22;12052;53.478;10.182;2023-07-28T03:10:28;16.10;99.90
23744;DHT22;12052;53.478;10.182;2023-07-28T03:12:54;16.00;99.90
23744;DHT22;12052;53.478;10.182;2023-07-28T03:15:20;16.00;99.90
23744;DHT22;12052;53.478;10.182;2023-07-28T03:17:47;16.00;99.90
23744;DHT22;12052;53.478;10.182;2023-07-28T03:20:13;16.00;99.90
23744;DHT22;12052;53.478;10.182;2023-07-28T03:22:39;16.00;99.90
23744;DHT22;12052;53.478;10.182;2023-07-28T03:25:05;16.00;99.90
23744;DHT22;12052;53.478;10.182;2023-07-28T03:27:30;16.00;99.90
23744;DHT22;12052;53.478;10.182;2023-07-28T03:29:56;15.90;99.90
23744;DHT22;12052;53.478;10.182;2023-07-28T03:32:21;15.90;99.90
23744;DHT22;12052;53.478;10.182;2023-07-28T03:34:47;16.00;99.90
23744;DHT22;12052;53.478;10.182;2023-07-28T03:37:13;16.00;99.90
23744;DHT22;12052;53.478;10.182;2023-07-28T03:39:38;15.90;99.90
23744;DHT22;12052;53.478;10.182;2023-07-28T03:42:04;15.90;99.90
23744;DHT22;12052;53.478;10.182;2023-07-28T03:44:30;15.90;99.90
23744;DHT22;12052;53.478;10.182;2023-07-28T03:46:56;15.80;99.90
23744;DHT22;12052;53.478;10.182;2023-07-28T03:49:21;15.80;99.90
23744;DHT22;12052;53.478;10.182;2023-07-28T03:51:47;15.80;99.90
23744;DHT22;12052;53.478;10.182;2023-07-28T03:54:12;15.90;99.90
23744;DHT22;12052;53.478;10.182;2023-07-28T03:56:38;15.80;99.90
23744;DHT22;12052;53.478;10.182;2023-07-28T03:59:03;15.80;99.90
23744;DHT22;12052;53.478;10.182;2023-07-28T04:01:29;15.80;99.90
23744;DHT22;12052;53.478;10.182;2023-07-28T04:03:55;15.80;99.90
23744;DHT22;12052;53.478;10.182;2023-07-28T04:06:39;15.80;99.90
23744;DHT22;12052;53.478;10.182;2023-07-28T04:09:06;15.80;99.90
23744;DHT22;12052;53.478;10.182;2023-07-28T04:11:32;15.80;99.90
23744;DHT22;12052;53.478;10.182;2023-07-28T04:13:57;15.80;99.90
23744;DHT22;12052;53.478;10.182;2023-07-28T04:16:23;15.80;99.90
23744;DHT22;12052;53.478;10.182;2023-07-28T04:18:49;15.80;99.90
23744;DHT22;12052;53.478;10.182;2023-07-28T04:21:14;15.80;99.90
23744;DHT22;12052;53.478;10.182;2023-07-28T04:23:40;15.80;99.90
23744;DHT22;12052;53.478;10.182;2023-07-28T04:26:06;15.80;99.90
23744;DHT22;12052;53.478;10.182;2023-07-28T04:28:32;15.90;99.90
23744;DHT22;12052;53.478;10.182;2023-07-28T04:30:57;15.90;99.90
23744;DHT22;12052;53.478;10.182;2023-07-28T04:33:23;15.90;99.90
23744;DHT22;12052;53.478;10.182;2023-07-28T04:35:48;15.90;99.90
23744;DHT22;12052;53.478;10.182;2023-07-28T04:38:14;15.80;99.90
23744;DHT22;12052;53.478;10.182;2023-07-28T04:40:40;15.90;99.90
23744;DHT22;12052;53.478;10.182;2023-07-28T04:43:05;15.90;99.90
23744;DHT22;12052;53.478;10.182;2023-07-28T04:45:31;15.80;99.90
23744;DHT22;12052;53.478;10.182;2023-07-28T04:47:56;15.90;99.90
23744;DHT22;12052;53.478;10.182;2023-07-28T04:50:22;15.90;99.90
23744;DHT22;12052;53.478;10.182;2023-07-28T04:52:48;15.90;99.90
23744;DHT22;12052;53.478;10.182;2023-07-28T04:55:13;16.00;99.90
23744;DHT22;12052;53.478;10.182;2023-07-28T04:57:39;16.00;99.90
23744;DHT22;12052;53.478;10.182;2023-07-28T05:00:05;16.00;99.90
23744;DHT22;12052;53.478;10.182;2023-07-28T05:02:31;16.00;99.90
23744;DHT22;12052;53.478;10.182;2023-07-28T05:04:57;16.00;99.90
23744;DHT22;12052;53.478;10.182;2023-07-28T05:07:22;16.00;99.90
23744;DHT22;12052;53.478;10.182;2023-07-28T05:09:49;16.10;99.90
23744;DHT22;12052;53.478;10.182;2023-07-28T05:12:15;16.10;99.90
23744;DHT22;12052;53.478;10.182;2023-07-28T05:14:40;16.20;99.90
23744;DHT22;12052;53.478;10.182;2023-07-28T05:17:06;16.10;99.90
23744;DHT22;12052;53.478;10.182;2023-07-28T05:19:32;16.20;99.90
23744;DHT22;12052;53.478;10.182;2023-07-28T05:21:57;16.30;99.90
23744;DHT22;12052;53.478;10.182;2023-07-28T05:24:23;16.30;99.90
23744;DHT22;12052;53.478;10.182;2023-07-28T05:26:49;16.20;99.90
23744;DHT22;12052;53.478;10.182;2023-07-28T05:29:14;16.30;99.90
23744;DHT22;12052;53.478;10.182;2023-07-28T05:31:40;16.30;99.90
23744;DHT22;12052;53.478;10.182;2023-07-28T05:34:06;16.30;99.90
23744;DHT22;12052;53.478;10.182;2023-07-28T05:36:31;16.30;99.90
23744;DHT22;12052;53.478;10.182;2023-07-28T05:38:57;16.30;99.90
23744;DHT22;12052;53.478;10.182;2023-07-28T05:41:23;16.40;99.90
23744;DHT22;12052;53.478;10.182;2023-07-28T05:43:49;16.40;99.90
23744;DHT22;12052;53.478;10.182;2023-07-28T05:46:16;16.50;99.90
23744;DHT22;12052;53.478;10.182;2023-07-28T05:48:42;16.50;99.90
23744;DHT22;12052;53.478;10.182;2023-07-28T05:51:07;16.50;99.90
23744;DHT22;12052;53.478;10.182;2023-07-28T05:53:33;16.60;99.90
23744;DHT22;12052;53.478;10.182;2023-07-28T05:55:58;16.70;99.90
23744;DHT22;12052;53.478;10.182;2023-07-28T05:58:24;16.60;99.90
23744;DHT22;12052;53.478;10.182;2023-07-28T06:00:50;16.60;99.90
23744;DHT22;12052;53.478;10.182;2023-07-28T06:03:15;16.70;99.90
23744;DHT22;12052;53.478;10.182;2023-07-28T06:05:41;16.70;99.90
23744;DHT22;12052;53.478;10.182;2023-07-28T06:08:07;16.70;99.90
23744;DHT22;12052;53.478;10.182;2023-07-28T06:10:33;16.70;99.90
23744;DHT22;12052;53.478;10.182;2023-07-28T06:12:59;16.80;99.90
23744;DHT22;12052;53.478;10.182;2023-07-28T06:15:25;16.70;99.90
23744;DHT22;12052;53.478;10.182;2023-07-28T06:17:50;16.90;99.90
23744;DHT22;12052;53.478;10.182;2023-07-28T06:20:16;16.90;99.90
23744;DHT22;12052;53.478;10.182;2023-07-28T06:22:41;17.00;99.90
23744;DHT22;12052;53.478;10.182;2023-07-28T06:25:07;17.00;99.90
23744;DHT22;12052;53.478;10.182;2023-07-28T06:27:33;17.10;99.90
23744;DHT22;12052;53.478;10.182;2023-07-28T06:29:59;17.10;99.90
23744;DHT22;12052;53.478;10.182;2023-07-28T06:32:25;17.10;99.90
23744;DHT22;12052;53.478;10.182;2023-07-28T06:34:53;17.10;99.90
23744;DHT22;12052;53.478;10.182;2023-07-28T06:37:19;17.10;99.90
23744;DHT22;12052;53.478;10.182;2023-07-28T06:39:45;17.10;99.90
23744;DHT22;12052;53.478;10.182;2023-07-28T06:42:10;17.20;99.90
23744;DHT22;12052;53.478;10.182;2023-07-28T06:44:37;17.20;99.90
23744;DHT22;12052;53.478;10.182;2023-07-28T06:47:03;17.20;99.90
23744;DHT22;12052;53.478;10.182;2023-07-28T06:49:29;17.20;99.90
23744;DHT22;12052;53.478;10.182;2023-07-28T06:51:54;17.20;99.90
23744;DHT22;12052;53.478;10.182;2023-07-28T06:54:20;17.20;99.90
23744;DHT22;12052;53.478;10.182;2023-07-28T06:56:46;17.20;99.90
23744;DHT22;12052;53.478;10.182;2023-07-28T06:59:11;17.30;99.90
23744;DHT22;12052;53.478;10.182;2023-07-28T07:01:37;17.30;99.90
23744;DHT22;12052;53.478;10.182;2023-07-28T07:04:03;17.40;99.90
23744;DHT22;12052;53.478;10.182;2023-07-28T07:06:30;17.50;99.90
23744;DHT22;12052;53.478;10.182;2023-07-28T07:08:57;17.40;99.90
23744;DHT22;12052;53.478;10.182;2023-07-28T07:11:22;17.40;99.90
23744;DHT22;12052;53.478;10.182;2023-07-28T07:13:48;17.40;99.90
23744;DHT22;12052;53.478;10.182;2023-07-28T07:16:17;17.40;99.90
23744;DHT22;12052;53.478;10.182;2023-07-28T07:18:46;17.40;99.90
23744;DHT22;12052;53.478;10.182;2023-07-28T07:21:11;17.50;99.90
23744;DHT22;12052;53.478;10.182;2023-07-28T07:23:37;17.50;99.90
23744;DHT22;12052;53.478;10.182;2023-07-28T07:26:03;17.50;99.90
23744;DHT22;12052;53.478;10.182;2023-07-28T07:28:28;17.50;99.90
23744;DHT22;12052;53.478;10.182;2023-07-28T07:30:57;17.40;99.90
23744;DHT22;12052;53.478;10.182;2023-07-28T07:33:23;17.40;99.90
23744;DHT22;12052;53.478;10.182;2023-07-28T07:35:49;17.60;99.90
23744;DHT22;12052;53.478;10.182;2023-07-28T07:38:15;17.60;99.90
23744;DHT22;12052;53.478;10.182;2023-07-28T07:40:41;17.50;99.90
23744;DHT22;12052;53.478;10.182;2023-07-28T07:43:06;17.60;99.90
23744;DHT22;12052;53.478;10.182;2023-07-28T07:45:32;17.50;99.90
23744;DHT22;12052;53.478;10.182;2023-07-28T07:48:00;17.50;99.90
23744;DHT22;12052;53.478;10.182;2023-07-28T07:50:26;17.60;99.90
23744;DHT22;12052;53.478;10.182;2023-07-28T07:52:52;17.60;99.90
23744;DHT22;12052;53.478;10.182;2023-07-28T07:55:17;17.60;99.90
23744;DHT22;12052;53.478;10.182;2023-07-28T07:57:43;17.50;99.90
23744;DHT22;12052;53.478;10.182;2023-07-28T08:00:09;17.50;99.90
23744;DHT22;12052;53.478;10.182;2023-07-28T08:02:36;17.50;99.90
23744;DHT22;12052;53.478;10.182;2023-07-28T08:05:02;17.40;99.90
23744;DHT22;12052;53.478;10.182;2023-07-28T08:07:28;17.50;99.90
23744;DHT22;12052;53.478;10.182;2023-07-28T08:09:54;17.50;99.90
23744;DHT22;12052;53.478;10.182;2023-07-28T08:12:20;17.60;99.90
23744;DHT22;12052;53.478;10.182;2023-07-28T08:14:45;17.70;99.90
23744;DHT22;12052;53.478;10.182;2023-07-28T08:17:13;17.70;99.90
23744;DHT22;12052;53.478;10.182;2023-07-28T08:19:39;17.70;99.90
23744;DHT22;12052;53.478;10.182;2023-07-28T08:22:05;17.70;99.90
23744;DHT22;12052;53.478;10.182;2023-07-28T08:24:31;17.80;99.90
23744;DHT22;12052;53.478;10.182;2023-07-28T08:26:57;17.90;99.90
23744;DHT22;12052;53.478;10.182;2023-07-28T08:29:22;17.90;99.90
23744;DHT22;12052;53.478;10.182;2023-07-28T08:31:48;17.90;99.90
23744;DHT22;12052;53.478;10.182;2023-07-28T08:34:13;17.90;99.90
23744;DHT22;12052;53.478;10.182;2023-07-28T08:36:39;18.00;99.90
23744;DHT22;12052;53.478;10.182;2023-07-28T08:39:08;18.00;99.90
23744;DHT22;12052;53.478;10.182;2023-07-28T08:41:35;18.00;99.90
23744;DHT22;12052;53.478;10.182;2023-07-28T08:44:01;18.00;99.90
23744;DHT22;12052;53.478;10.182;2023-07-28T08:46:26;18.10;99.90
23744;DHT22;12052;53.478;10.182;2023-07-28T08:48:53;18.20;99.90
23744;DHT22;12052;53.478;10.182;2023-07-28T08:51:22;18.20;99.90
23744;DHT22;12052;53.478;10.182;2023-07-28T08:53:48;18.20;99.90
23744;DHT22;12052;53.478;10.182;2023-07-28T08:56:14;18.30;99.90
23744;DHT22;12052;53.478;10.182;2023-07-28T08:58:40;18.30;99.90
23744;DHT22;12052;53.478;10.182;2023-07-28T09:01:05;18.20;99.90
23744;DHT22;12052;53.478;10.182;2023-07-28T09:03:31;18.20;99.90
23744;DHT22;12052;53.478;10.182;2023-07-28T09:06:01;18.10;99.90
23744;DHT22;12052;53.478;10.182;2023-07-28T09:08:27;18.10;99.90
23744;DHT22;12052;53.478;10.182;2023-07-28T09:10:54;18.10;99.90
23744;DHT22;12052;53.478;10.182;2023-07-28T09:13:20;18.10;99.90
23744;DHT22;12052;53.478;10.182;2023-07-28T09:15:46;18.20;99.90
23744;DHT22;12052;53.478;10.182;2023-07-28T09:18:15;18.30;99.90
23744;DHT22;12052;53.478;10.182;2023-07-28T09:20:42;18.40;99.90
23744;DHT22;12052;53.478;10.182;2023-07-28T09:23:09;18.50;99.90
23744;DHT22;12052;53.478;10.182;2023-07-28T09:25:36;18.60;99.90
23744;DHT22;12052;53.478;10.182;2023-07-28T09:28:03;18.60;99.90
23744;DHT22;12052;53.478;10.182;2023-07-28T09:30:45;18.60;99.90
23744;DHT22;12052;53.478;10.182;2023-07-28T09:33:11;18.50;99.90
23744;DHT22;12052;53.478;10.182;2023-07-28T09:35:48;18.70;99.90
23744;DHT22;12052;53.478;10.182;2023-07-28T09:38:14;18.70;99.90
23744;DHT22;12052;53.478;10.182;2023-07-28T09:40:41;18.80;99.90
23744;DHT22;12052;53.478;10.182;2023-07-28T09:43:07;18.80;99.90
23744;DHT22;12052;53.478;10.182;2023-07-28T09:45:33;18.90;99.90
23744;DHT22;12052;53.478;10.182;2023-07-28T09:48:01;19.00;99.90
23744;DHT22;12052;53.478;10.182;2023-07-28T09:50:29;19.10;99.90
23744;DHT22;12052;53.478;10.182;2023-07-28T09:53:00;19.20;99.90
23744;DHT22;12052;53.478;10.182;2023-07-28T09:55:26;19.30;99.90
23744;DHT22;12052;53.478;10.182;2023-07-28T09:57:55;19.40;99.90
23744;DHT22;12052;53.478;10.182;2023-07-28T10:00:22;19.40;99.90
23744;DHT22;12052;53.478;10.182;2023-07-28T10:02:49;19.40;99.90
23744;DHT22;12052;53.478;10.182;2023-07-28T10:05:15;19.50;99.90
23744;DHT22;12052;53.478;10.182;2023-07-28T10:07:43;19.50;99.90
23744;DHT22;12052;53.478;10.182;2023-07-28T10:10:11;19.50;99.90
23744;DHT22;12052;53.478;10.182;2023-07-28T10:12:51;19.50;99.90
23744;DHT22;12052;53.478;10.182;2023-07-28T10:15:19;19.50;99.90
23744;DHT22;12052;53.478;10.182;2023-07-28T10:17:50;19.50;99.90
23744;DHT22;12052;53.478;10.182;2023-07-28T10:20:34;19.40;99.90
23744;DHT22;12052;53.478;10.182;2023-07-28T10:23:04;19.30;99.90
23744;DHT22;12052;53.478;10.182;2023-07-28T10:25:33;19.30;99.90
23744;DHT22;12052;53.478;10.182;2023-07-28T10:27:59;19.30;99.90
23744;DHT22;12052;53.478;10.182;2023-07-28T10:30:25;19.20;99.90
23744;DHT22;12052;53.478;10.182;2023-07-28T10:32:51;19.20;99.90
23744;DHT22;12052;53.478;10.182;2023-07-28T10:35:25;19.10;99.90
23744;DHT22;12052;53.478;10.182;2023-07-28T10:37:53;19.10;99.90
23744;DHT22;12052;53.478;10.182;2023-07-28T10:40:34;19.10;99.90
23744;DHT22;12052;53.478;10.182;2023-07-28T10:43:01;19.10;99.90
23744;DHT22;12052;53.478;10.182;2023-07-28T10:45:30;19.10;99.90
23744;DHT22;12052;53.478;10.182;2023-07-28T10:47:57;19.20;99.90
23744;DHT22;12052;53.478;10.182;2023-07-28T10:50:29;19.30;99.90
23744;DHT22;12052;53.478;10.182;2023-07-28T10:52:55;19.40;99.90
23744;DHT22;12052;53.478;10.182;2023-07-28T10:55:24;19.60;99.90
23744;DHT22;12052;53.478;10.182;2023-07-28T10:57:51;19.80;99.90
23744;DHT22;12052;53.478;10.182;2023-07-28T11:00:18;19.90;99.90
23744;DHT22;12052;53.478;10.182;2023-07-28T11:02:45;20.10;99.90
23744;DHT22;12052;53.478;10.182;2023-07-28T11:05:25;20.20;99.90
23744;DHT22;12052;53.478;10.182;2023-07-28T11:07:53;20.30;99.90
23744;DHT22;12052;53.478;10.182;2023-07-28T11:10:19;20.40;99.90
23744;DHT22;12052;53.478;10.182;2023-07-28T11:12:48;20.40;99.90
23744;DHT22;12052;53.478;10.182;2023-07-28T11:15:15;20.40;99.90
23744;DHT22;12052;53.478;10.182;2023-07-28T11:17:46;20.40;99.90
23744;DHT22;12052;53.478;10.182;2023-07-28T11:20:20;20.50;99.90
23744;DHT22;12052;53.478;10.182;2023-07-28T11:22:51;20.40;99.90
23744;DHT22;12052;53.478;10.182;2023-07-28T11:25:17;20.50;99.90
23744;DHT22;12052;53.478;10.182;2023-07-28T11:27:44;20.60;99.90
23744;DHT22;12052;53.478;10.182;2023-07-28T11:30:12;20.60;99.90
23744;DHT22;12052;53.478;10.182;2023-07-28T11:32:38;20.60;99.90
23744;DHT22;12052;53.478;10.182;2023-07-28T11:35:08;20.70;99.90
23744;DHT22;12052;53.478;10.182;2023-07-28T11:37:38;20.70;99.90
23744;DHT22;12052;53.478;10.182;2023-07-28T11:40:06;20.80;99.90
23744;DHT22;12052;53.478;10.182;2023-07-28T11:42:44;20.90;99.90
23744;DHT22;12052;53.478;10.182;2023-07-28T11:45:12;21.10;99.90
23744;DHT22;12052;53.478;10.182;2023-07-28T11:47:38;21.20;99.90
23744;DHT22;12052;53.478;10.182;2023-07-28T11:50:04;21.10;99.90
23744;DHT22;12052;53.478;10.182;2023-07-28T11:52:36;21.20;99.90
23744;DHT22;12052;53.478;10.182;2023-07-28T11:55:05;21.20;99.90
23744;DHT22;12052;53.478;10.182;2023-07-28T11:57:32;21.30;99.90
23744;DHT22;12052;53.478;10.182;2023-07-28T11:59:58;21.30;99.90
23744;DHT22;12052;53.478;10.182;2023-07-28T12:02:28;21.40;99.90
23744;DHT22;12052;53.478;10.182;2023-07-28T12:04:55;21.40;99.90
23744;DHT22;12052;53.478;10.182;2023-07-28T12:07:32;21.40;99.90
23744;DHT22;12052;53.478;10.182;2023-07-28T12:10:05;21.30;99.90
23744;DHT22;12052;53.478;10.182;2023-07-28T12:12:45;21.40;99.90
23744;DHT22;12052;53.478;10.182;2023-07-28T12:15:27;21.50;99.90
23744;DHT22;12052;53.478;10.182;2023-07-28T12:18:15;21.50;99.90
23744;DHT22;12052;53.478;10.182;2023-07-28T12:20:53;21.50;99.90
23744;DHT22;12052;53.478;10.182;2023-07-28T12:23:20;21.50;99.90
23744;DHT22;12052;53.478;10.182;2023-07-28T12:25:46;21.50;99.90
23744;DHT22;12052;53.478;10.182;2023-07-28T12:28:12;21.60;99.90
23744;DHT22;12052;53.478;10.182;2023-07-28T12:30:39;21.60;99.90
23744;DHT22;12052;53.478;10.182;2023-07-28T12:33:06;21.50;99.90
23744;DHT22;12052;53.478;10.182;2023-07-28T12:35:32;21.40;99.90
23744;DHT22;12052;53.478;10.182;2023-07-28T12:38:00;21.30;99.90
23744;DHT22;12052;53.478;10.182;2023-07-28T12:40:27;21.20;99.90
23744;DHT22;12052;53.478;10.182;2023-07-28T12:42:55;21.20;99.90
23744;DHT22;12052;53.478;10.182;2023-07-28T12:45:21;21.30;99.90
23744;DHT22;12052;53.478;10.182;2023-07-28T12:47:47;21.30;99.90
23744;DHT22;12052;53.478;10.182;2023-07-28T12:50:12;21.30;99.90
23744;DHT22;12052;53.478;10.182;2023-07-28T12:52:38;21.30;99.90
23744;DHT22;12052;53.478;10.182;2023-07-28T12:55:04;21.30;99.90
23744;DHT22;12052;53.478;10.182;2023-07-28T12:57:31;21.30;99.90
23744;DHT22;12052;53.478;10.182;2023-07-28T12:59:56;21.30;99.90
23744;DHT22;12052;53.478;10.182;2023-07-28T13:02:22;21.40;99.90
23744;DHT22;12052;53.478;10.182;2023-07-28T13:04:47;21.50;99.90
23744;DHT22;12052;53.478;10.182;2023-07-28T13:07:13;21.60;99.90
23744;DHT22;12052;53.478;10.182;2023-07-28T13:09:39;21.70;99.90
23744;DHT22;12052;53.478;10.182;2023-07-28T13:12:07;21.80;99.90
23744;DHT22;12052;53.478;10.182;2023-07-28T13:14:33;21.80;99.90
23744;DHT22;12052;53.478;10.182;2023-07-28T13:16:58;21.90;99.90
23744;DHT22;12052;53.478;10.182;2023-07-28T13:19:24;21.90;99.90
23744;DHT22;12052;53.478;10.182;2023-07-28T13:21:49;21.90;99.90
23744;DHT22;12052;53.478;10.182;2023-07-28T13:24:15;21.80;99.90
23744;DHT22;12052;53.478;10.182;2023-07-28T13:26:40;21.70;99.90
23744;DHT22;12052;53.478;10.182;2023-07-28T13:29:06;21.70;99.90
23744;DHT22;12052;53.478;10.182;2023-07-28T13:31:32;21.70;99.90
23744;DHT22;12052;53.478;10.182;2023-07-28T13:33:58;21.70;99.90
23744;DHT22;12052;53.478;10.182;2023-07-28T13:36:23;21.60;99.90
23744;DHT22;12052;53.478;10.182;2023-07-28T13:38:49;21.50;99.90
23744;DHT22;12052;53.478;10.182;2023-07-28T13:41:15;21.50;99.90
23744;DHT22;12052;53.478;10.182;2023-07-28T13:43:40;21.30;99.90
23744;DHT22;12052;53.478;10.182;2023-07-28T13:46:07;21.20;99.90
23744;DHT22;12052;53.478;10.182;2023-07-28T13:48:33;21.10;99.90
23744;DHT22;12052;53.478;10.182;2023-07-28T13:51:00;20.90;99.90
23744;DHT22;12052;53.478;10.182;2023-07-28T13:53:27;20.70;99.90
23744;DHT22;12052;53.478;10.182;2023-07-28T13:55:54;20.40;99.90
23744;DHT22;12052;53.478;10.182;2023-07-28T13:58:20;20.50;99.90
23744;DHT22;12052;53.478;10.182;2023-07-28T14:00:45;20.50;99.90
23744;DHT22;12052;53.478;10.182;2023-07-28T14:03:11;20.50;99.90
23744;DHT22;12052;53.478;10.182;2023-07-28T14:05:38;20.70;99.90
23744;DHT22;12052;53.478;10.182;2023-07-28T14:08:03;20.90;99.90
23744;DHT22;12052;53.478;10.182;2023-07-28T14:10:29;21.20;99.90
23744;DHT22;12052;53.478;10.182;2023-07-28T14:12:57;21.60;99.90
23744;DHT22;12052;53.478;10.182;2023-07-28T14:15:23;21.70;99.90
23744;DHT22;12052;53.478;10.182;2023-07-28T14:17:48;21.80;99.90
23744;DHT22;12052;53.478;10.182;2023-07-28T14:20:14;21.90;99.90
23744;DHT22;12052;53.478;10.182;2023-07-28T14:22:40;21.90;99.90
23744;DHT22;12052;53.478;10.182;2023-07-28T14:25:05;21.80;99.90
23744;DHT22;12052;53.478;10.182;2023-07-28T14:27:31;21.90;99.90
23744;DHT22;12052;53.478;10.182;2023-07-28T14:29:57;21.90;99.90
23744;DHT22;12052;53.478;10.182;2023-07-28T14:32:22;22.00;99.90
23744;DHT22;12052;53.478;10.182;2023-07-28T14:34:48;22.00;99.90
23744;DHT22;12052;53.478;10.182;2023-07-28T14:37:13;22.00;99.90
23744;DHT22;12052;53.478;10.182;2023-07-28T14:39:39;21.90;99.90
23744;DHT22;12052;53.478;10.182;2023-07-28T14:42:05;22.00;99.90
23744;DHT22;12052;53.478;10.182;2023-07-28T14:44:30;22.10;99.90
23744;DHT22;12052;53.478;10.182;2023-07-28T14:46:56;22.20;99.90
23744;DHT22;12052;53.478;10.182;2023-07-28T14:49:23;22.20;99.90
23744;DHT22;12052;53.478;10.182;2023-07-28T14:51:49;22.30;99.90
23744;DHT22;12052;53.478;10.182;2023-07-28T14:54:14;22.40;99.90
23744;DHT22;12052;53.478;10.182;2023-07-28T14:56:40;22.40;99.90
23744;DHT22;12052;53.478;10.182;2023-07-28T14:59:05;22.50;99.90
23744;DHT22;12052;53.478;10.182;2023-07-28T15:01:31;22.60;99.90
23744;DHT22;12052;53.478;10.182;2023-07-28T15:03:58;22.50;99.90
23744;DHT22;12052;53.478;10.182;2023-07-28T15:06:24;22.40;99.90
23744;DHT22;12052;53.478;10.182;2023-07-28T15:08:50;22.20;99.90
23744;DHT22;12052;53.478;10.182;2023-07-28T15:11:16;22.20;99.90
23744;DHT22;12052;53.478;10.182;2023-07-28T15:13:43;22.30;99.90
23744;DHT22;12052;53.478;10.182;2023-07-28T15:16:09;22.50;99.90
23744;DHT22;12052;53.478;10.182;2023-07-28T15:18:34;22.60;99.90